createdAt,value
2018-03-08T00:00:56.984Z,91.72
2018-03-08T00:01:57.562Z,91.82
2018-03-08T00:02:58.139Z,91.63
2018-03-08T00:03:58.715Z,91.82
2018-03-08T00:04:59.345Z,91.72
2018-03-08T00:05:59.924Z,91.53
2018-03-08T00:07:00.555Z,90.67
2018-03-08T00:08:01.173Z,91.05
2018-03-08T00:09:01.798Z,91.44
2018-03-08T00:10:02.376Z,91.92
2018-03-08T00:11:02.955Z,91.92
2018-03-08T00:12:03.531Z,91.92
2018-03-08T00:13:04.112Z,91.58
2018-03-08T00:14:04.683Z,92.11
2018-03-08T00:15:05.308Z,91.82
2018-03-08T00:16:05.888Z,91.92
2018-03-08T00:17:06.463Z,91.92
2018-03-08T00:18:07.041Z,91.82
2018-03-08T00:19:07.617Z,91.92
2018-03-08T00:20:08.194Z,91.72
2018-03-08T00:21:08.821Z,91.63
2018-03-08T00:22:09.397Z,91.72
2018-03-08T00:23:09.975Z,91.82
2018-03-08T00:24:10.602Z,91.68
2018-03-08T00:25:11.178Z,91.68
2018-03-08T00:26:11.755Z,91.11
2018-03-08T00:27:12.331Z,91.97
2018-03-08T00:28:12.909Z,91.87
2018-03-08T00:29:13.484Z,91.97
2018-03-08T00:31:24.632Z,92.25
2018-03-08T00:32:25.207Z,92.16
2018-03-08T00:33:25.785Z,91.77
2018-03-08T00:34:26.412Z,91.68
2018-03-08T00:35:27.001Z,91.58
2018-03-08T00:36:27.668Z,91.20
2018-03-08T00:37:28.244Z,91.68
2018-03-08T00:38:28.817Z,91.77
2018-03-08T00:39:29.395Z,91.39
2018-03-08T00:40:29.969Z,91.87
2018-03-08T00:41:30.544Z,91.11
2018-03-08T00:42:31.120Z,91.97
2018-03-08T00:43:31.696Z,92.73
2018-03-08T00:44:32.275Z,92.44
2018-03-08T00:45:32.859Z,93.02
2018-03-08T00:46:33.430Z,91.77
2018-03-08T00:47:34.008Z,92.92
2018-03-08T00:48:34.585Z,92.73
2018-03-08T00:49:35.160Z,91.97
2018-03-08T00:50:35.785Z,91.97
2018-03-08T00:51:36.362Z,92.25
2018-03-08T00:52:36.990Z,92.16
2018-03-08T00:53:37.565Z,92.06
2018-03-08T00:54:38.189Z,92.83
2018-03-08T00:55:38.768Z,92.63
2018-03-08T00:56:39.343Z,92.44
2018-03-08T00:57:39.920Z,92.63
2018-03-08T00:58:40.494Z,92.73
2018-03-08T00:59:41.074Z,93.21
2018-03-08T01:00:41.645Z,92.35
2018-03-08T01:01:42.222Z,92.83
2018-03-08T01:02:42.797Z,92.83
2018-03-08T01:03:43.373Z,93.02
2018-03-08T01:04:43.953Z,92.83
2018-03-08T01:05:44.529Z,93.30
2018-03-08T01:06:45.108Z,92.35
2018-03-08T01:07:45.686Z,92.44
2018-03-08T01:08:46.311Z,92.63
2018-03-08T01:09:46.887Z,92.83
2018-03-08T01:10:47.614Z,92.63
2018-03-08T01:11:48.189Z,92.73
2018-03-08T01:12:48.771Z,92.63
2018-03-08T01:13:49.344Z,92.63
2018-03-08T01:14:49.973Z,92.63
2018-03-08T01:15:50.547Z,92.63
2018-03-08T01:16:51.127Z,92.83
2018-03-08T01:17:51.747Z,92.73
2018-03-08T01:18:52.322Z,92.73
2018-03-08T01:19:52.901Z,92.83
2018-03-08T01:20:53.477Z,92.92
2018-03-08T01:21:54.054Z,92.63
2018-03-08T01:22:54.628Z,92.83
2018-03-08T01:23:55.204Z,93.30
2018-03-08T01:24:55.780Z,92.83
2018-03-08T01:25:56.406Z,92.63
2018-03-08T01:26:56.984Z,93.21
2018-03-08T01:27:57.558Z,92.63
2018-03-08T01:28:58.185Z,92.83
2018-03-08T01:29:58.759Z,93.02
2018-03-08T01:30:59.336Z,92.73
2018-03-08T01:31:59.916Z,92.73
2018-03-08T01:33:00.538Z,92.63
2018-03-08T01:34:01.113Z,92.83
2018-03-08T01:35:01.690Z,93.21
2018-03-08T01:36:02.271Z,92.83
2018-03-08T01:37:02.882Z,92.83
2018-03-08T01:38:03.459Z,92.73
2018-03-08T01:39:04.034Z,92.44
2018-03-08T01:40:04.610Z,92.83
2018-03-08T01:41:05.189Z,92.73
2018-03-08T01:42:05.816Z,93.40
2018-03-08T01:43:06.396Z,93.02
2018-03-08T01:44:07.019Z,93.02
2018-03-08T01:45:07.596Z,93.02
2018-03-08T01:46:08.177Z,92.83
2018-03-08T01:47:08.754Z,93.30
2018-03-08T01:48:09.378Z,92.54
2018-03-08T01:49:09.960Z,92.73
2018-03-08T01:50:10.532Z,93.30
2018-03-08T01:51:11.109Z,92.92
2018-03-08T01:52:11.685Z,92.73
2018-03-08T01:53:12.260Z,92.97
2018-03-08T01:54:12.835Z,93.02
2018-03-08T01:55:13.410Z,93.30
2018-03-08T01:56:13.994Z,92.63
2018-03-08T01:57:14.560Z,92.73
2018-03-08T01:58:15.137Z,92.69
2018-03-08T01:59:15.713Z,93.35
2018-03-08T02:00:16.289Z,93.21
2018-03-08T02:01:16.863Z,92.92
2018-03-08T02:02:17.509Z,92.92
2018-03-08T02:03:18.148Z,93.59
2018-03-08T02:04:18.774Z,93.59
2018-03-08T02:05:19.351Z,93.69
2018-03-08T02:06:19.931Z,93.69
2018-03-08T02:07:20.655Z,93.55
2018-03-08T02:08:21.233Z,93.55
2018-03-08T02:09:21.808Z,92.92
2018-03-08T02:10:22.386Z,93.30
2018-03-08T02:11:22.963Z,93.79
2018-03-08T02:12:23.540Z,93.59
2018-03-08T02:13:24.118Z,93.59
2018-03-08T02:14:24.742Z,93.55
2018-03-08T02:15:25.321Z,93.64
2018-03-08T02:16:25.897Z,93.55
2018-03-08T02:17:26.474Z,92.54
2018-03-08T02:18:27.201Z,92.59
2018-03-08T02:19:27.775Z,92.69
2018-03-08T02:20:28.351Z,92.73
2018-03-08T02:21:28.925Z,92.59
2018-03-08T02:22:29.501Z,93.69
2018-03-08T02:23:30.130Z,92.78
2018-03-08T02:24:30.756Z,92.69
2018-03-08T02:25:31.334Z,92.78
2018-03-08T02:26:31.912Z,92.97
2018-03-08T02:27:32.489Z,92.49
2018-03-08T02:28:33.071Z,92.11
2018-03-08T02:29:33.644Z,92.78
2018-03-08T02:30:34.221Z,93.64
2018-03-08T02:31:34.796Z,92.30
2018-03-08T02:32:35.372Z,92.78
2018-03-08T02:33:35.949Z,92.78
2018-03-08T02:34:36.575Z,92.59
2018-03-08T02:35:37.152Z,92.78
2018-03-08T02:36:37.731Z,92.69
2018-03-08T02:37:38.312Z,92.88
2018-03-08T02:38:38.923Z,93.55
2018-03-08T02:39:39.498Z,93.74
2018-03-08T02:40:40.072Z,93.64
2018-03-08T02:41:40.699Z,93.64
2018-03-08T02:42:41.324Z,93.45
2018-03-08T02:43:41.901Z,93.55
2018-03-08T02:44:42.480Z,93.74
2018-03-08T02:45:43.057Z,92.59
2018-03-08T02:46:43.639Z,93.26
2018-03-08T02:47:44.210Z,92.59
2018-03-08T02:48:44.786Z,92.78
2018-03-08T02:49:45.365Z,93.16
2018-03-08T02:50:45.941Z,93.55
2018-03-08T02:51:46.561Z,92.78
2018-03-08T02:52:47.136Z,92.69
2018-03-08T02:53:47.779Z,92.69
2018-03-08T02:54:48.389Z,92.59
2018-03-08T02:55:48.965Z,92.59
2018-03-08T02:56:49.687Z,92.59
2018-03-08T02:57:50.266Z,93.45
2018-03-08T02:58:50.898Z,93.45
2018-03-08T02:59:51.469Z,93.84
2018-03-08T03:00:52.046Z,93.45
2018-03-08T03:01:52.672Z,93.55
2018-03-08T03:02:53.247Z,92.97
2018-03-08T03:03:53.823Z,92.59
2018-03-08T03:04:54.406Z,93.64
2018-03-08T03:05:54.977Z,93.55
2018-03-08T03:06:55.553Z,92.78
2018-03-08T03:07:56.127Z,93.26
2018-03-08T03:08:56.702Z,93.16
2018-03-08T03:09:57.371Z,92.78
2018-03-08T03:10:57.905Z,92.78
2018-03-08T03:11:58.479Z,93.45
2018-03-08T03:12:59.056Z,93.55
2018-03-08T03:13:59.631Z,93.93
2018-03-08T03:15:00.256Z,93.55
2018-03-08T03:16:00.832Z,92.78
2018-03-08T03:17:01.409Z,93.07
2018-03-08T03:18:02.009Z,93.26
2018-03-08T03:19:02.614Z,92.97
2018-03-08T03:20:03.188Z,93.16
2018-03-08T03:21:03.764Z,93.74
2018-03-08T03:22:04.388Z,93.16
2018-03-08T03:23:04.968Z,93.45
2018-03-08T03:24:05.543Z,93.45
2018-03-08T03:25:06.169Z,93.45
2018-03-08T03:26:06.746Z,93.74
2018-03-08T03:27:07.322Z,94.12
2018-03-08T03:28:07.901Z,93.55
2018-03-08T03:29:08.475Z,93.16
2018-03-08T03:30:09.054Z,92.21
2018-03-08T03:31:09.680Z,93.26
2018-03-08T03:32:10.256Z,93.64
2018-03-08T03:33:10.833Z,93.55
2018-03-08T03:34:11.409Z,93.55
2018-03-08T03:35:11.986Z,93.35
2018-03-08T03:36:12.561Z,94.12
2018-03-08T03:37:13.140Z,93.64
2018-03-08T03:38:13.809Z,93.74
2018-03-08T03:39:14.388Z,93.55
2018-03-08T03:40:15.013Z,93.55
2018-03-08T03:41:15.586Z,93.55
2018-03-08T03:42:16.162Z,93.55
2018-03-08T03:43:16.738Z,93.64
2018-03-08T03:44:17.315Z,93.64
2018-03-08T03:45:17.892Z,93.64
2018-03-08T03:46:18.471Z,93.74
2018-03-08T03:47:19.092Z,94.21
2018-03-08T03:48:19.668Z,94.02
2018-03-08T03:49:20.286Z,93.55
2018-03-08T03:50:20.860Z,93.45
2018-03-08T03:51:21.484Z,93.55
2018-03-08T03:52:22.062Z,93.64
2018-03-08T03:53:22.640Z,93.55
2018-03-08T03:54:23.217Z,93.35
2018-03-08T03:55:23.791Z,93.64
2018-03-08T03:56:24.367Z,93.55
2018-03-08T03:57:24.992Z,93.84
2018-03-08T03:58:25.566Z,93.64
2018-03-08T03:59:26.143Z,94.02
2018-03-08T04:00:26.719Z,93.26
2018-03-08T04:01:27.346Z,93.64
2018-03-08T04:02:27.922Z,94.02
2018-03-08T04:03:28.496Z,93.84
2018-03-08T04:04:29.075Z,93.64
2018-03-08T04:05:29.690Z,93.55
2018-03-08T04:06:30.268Z,94.12
2018-03-08T04:07:30.874Z,94.21
2018-03-08T04:08:31.471Z,93.84
2018-03-08T04:09:32.047Z,94.12
2018-03-08T04:10:32.622Z,93.93
2018-03-08T04:11:33.199Z,94.02
2018-03-08T04:12:33.774Z,93.26
2018-03-08T04:13:34.352Z,93.45
2018-03-08T04:14:34.930Z,93.45
2018-03-08T04:15:35.508Z,93.26
2018-03-08T04:16:36.135Z,93.26
2018-03-08T04:17:36.712Z,93.93
2018-03-08T04:18:37.340Z,93.64
2018-03-08T04:19:37.919Z,93.45
2018-03-08T04:20:38.491Z,93.64
2018-03-08T04:21:39.068Z,94.31
2018-03-08T04:22:39.644Z,93.74
2018-03-08T04:23:40.224Z,94.02
2018-03-08T04:24:40.797Z,94.02
2018-03-08T04:25:41.374Z,93.64
2018-03-08T04:26:41.950Z,93.84
2018-03-08T04:27:42.526Z,94.02
2018-03-08T04:28:43.106Z,93.84
2018-03-08T04:29:43.682Z,93.55
2018-03-08T04:30:44.260Z,93.55
2018-03-08T04:31:44.885Z,93.64
2018-03-08T04:32:45.460Z,93.45
2018-03-08T04:33:46.037Z,93.93
2018-03-08T04:34:46.612Z,93.93
2018-03-08T04:35:47.237Z,93.64
2018-03-08T04:36:47.864Z,94.21
2018-03-08T04:37:48.439Z,94.41
2018-03-08T04:38:49.016Z,94.31
2018-03-08T04:39:49.594Z,93.74
2018-03-08T04:40:50.168Z,94.41
2018-03-08T04:41:50.746Z,94.50
2018-03-08T04:42:51.324Z,94.02
2018-03-08T04:43:51.900Z,94.70
2018-03-08T04:44:52.481Z,93.93
2018-03-08T04:45:53.056Z,94.02
2018-03-08T04:46:53.630Z,94.12
2018-03-08T04:47:54.255Z,93.45
2018-03-08T04:48:54.842Z,92.78
2018-03-08T04:49:55.410Z,93.26
2018-03-08T04:50:55.989Z,94.02
2018-03-08T04:51:56.564Z,93.93
2018-03-08T04:52:57.188Z,93.74
2018-03-08T04:53:57.765Z,94.41
2018-03-08T04:54:58.341Z,94.12
2018-03-08T04:55:58.975Z,93.74
2018-03-08T04:56:59.539Z,94.21
2018-03-08T04:58:00.119Z,94.60
2018-03-08T04:59:00.694Z,94.31
2018-03-08T05:00:01.266Z,94.41
2018-03-08T05:01:01.843Z,94.60
2018-03-08T05:02:02.421Z,94.79
2018-03-08T05:03:02.996Z,94.12
2018-03-08T05:04:03.575Z,93.55
2018-03-08T05:05:04.201Z,94.41
2018-03-08T05:06:04.819Z,93.84
2018-03-08T05:07:05.397Z,94.02
2018-03-08T05:08:05.972Z,94.12
2018-03-08T05:09:06.700Z,94.79
2018-03-08T05:10:07.339Z,94.89
2018-03-08T05:11:07.946Z,93.93
2018-03-08T05:12:08.522Z,94.70
2018-03-08T05:13:09.100Z,94.70
2018-03-08T05:14:09.677Z,94.60
2018-03-08T05:15:10.254Z,94.70
2018-03-08T05:16:10.831Z,94.70
2018-03-08T05:17:11.409Z,94.60
2018-03-08T05:18:12.024Z,94.12
2018-03-08T05:19:12.601Z,94.60
2018-03-08T05:20:13.179Z,94.70
2018-03-08T05:21:13.755Z,93.45
2018-03-08T05:22:14.333Z,92.78
2018-03-08T05:23:14.908Z,92.69
2018-03-08T05:24:15.536Z,93.16
2018-03-08T05:25:16.114Z,92.78
2018-03-08T05:26:16.687Z,93.74
2018-03-08T05:27:17.314Z,94.02
2018-03-08T05:28:17.890Z,93.74
2018-03-08T05:29:18.514Z,93.45
2018-03-08T05:30:19.091Z,93.74
2018-03-08T05:31:19.667Z,93.93
2018-03-08T05:32:20.393Z,93.84
2018-03-08T05:33:20.971Z,94.79
2018-03-08T05:34:21.545Z,93.74
2018-03-08T05:35:22.121Z,93.26
2018-03-08T05:36:22.695Z,94.12
2018-03-08T05:37:23.271Z,94.12
2018-03-08T05:38:23.888Z,94.12
2018-03-08T05:39:24.463Z,94.70
2018-03-08T05:40:25.090Z,94.50
2018-03-08T05:41:25.715Z,94.60
2018-03-08T05:42:26.290Z,94.50
2018-03-08T05:43:26.866Z,94.60
2018-03-08T05:44:27.442Z,94.70
2018-03-08T05:45:28.069Z,94.50
2018-03-08T05:46:28.647Z,94.79
2018-03-08T05:47:29.270Z,94.79
2018-03-08T05:48:29.851Z,94.70
2018-03-08T05:49:30.429Z,94.50
2018-03-08T05:50:31.006Z,94.41
2018-03-08T05:51:31.582Z,94.60
2018-03-08T05:52:32.158Z,94.21
2018-03-08T05:53:32.735Z,94.60
2018-03-08T05:54:33.310Z,94.60
2018-03-08T05:55:33.891Z,94.50
2018-03-08T05:56:34.465Z,94.79
2018-03-08T05:57:35.043Z,94.70
2018-03-08T05:58:35.618Z,94.50
2018-03-08T05:59:36.194Z,94.50
2018-03-08T06:00:36.770Z,94.70
2018-03-08T06:01:37.397Z,94.50
2018-03-08T06:02:37.974Z,94.50
2018-03-08T06:03:38.598Z,94.70
2018-03-08T06:04:39.175Z,94.70
2018-03-08T06:05:39.802Z,94.21
2018-03-08T06:06:40.418Z,94.60
2018-03-08T06:07:41.038Z,94.60
2018-03-08T06:08:41.613Z,94.50
2018-03-08T06:09:42.189Z,94.70
2018-03-08T06:10:42.765Z,94.89
2018-03-08T06:11:43.339Z,94.98
2018-03-08T06:12:43.920Z,94.60
2018-03-08T06:13:44.492Z,94.98
2018-03-08T06:14:45.063Z,95.07
2018-03-08T06:15:45.637Z,95.07
2018-03-08T06:16:46.213Z,94.89
2018-03-08T06:17:46.791Z,94.89
2018-03-08T06:18:47.412Z,95.07
2018-03-08T06:19:48.041Z,95.07
2018-03-08T06:20:48.616Z,95.07
2018-03-08T06:21:49.279Z,95.17
2018-03-08T06:22:49.811Z,94.84
2018-03-08T06:23:50.389Z,95.07
2018-03-08T06:24:50.966Z,95.27
2018-03-08T06:25:51.543Z,95.17
2018-03-08T06:26:52.118Z,94.98
2018-03-08T06:27:52.699Z,94.98
2018-03-08T06:28:53.320Z,95.17
2018-03-08T06:29:53.895Z,94.79
2018-03-08T06:30:54.625Z,94.79
2018-03-08T06:31:55.201Z,94.70
2018-03-08T06:32:55.982Z,94.79
2018-03-08T06:33:56.553Z,94.79
2018-03-08T06:34:57.129Z,95.27
2018-03-08T06:35:57.706Z,95.07
2018-03-08T06:36:58.281Z,95.07
2018-03-08T06:37:58.908Z,94.98
2018-03-08T06:38:59.709Z,94.98
2018-03-08T06:40:00.260Z,94.84
2018-03-08T06:41:00.834Z,94.79
2018-03-08T06:42:01.410Z,95.07
2018-03-08T06:43:01.985Z,94.98
2018-03-08T06:44:02.561Z,95.07
2018-03-08T06:45:03.140Z,94.89
2018-03-08T06:46:03.714Z,95.36
2018-03-08T06:47:04.331Z,95.36
2018-03-08T06:48:04.958Z,94.98
2018-03-08T06:49:05.585Z,95.07
2018-03-08T06:50:06.202Z,95.61
2018-03-08T06:51:06.782Z,95.70
2018-03-08T06:52:07.357Z,95.70
2018-03-08T06:53:07.933Z,95.70
2018-03-08T06:54:08.509Z,95.61
2018-03-08T06:55:09.086Z,95.41
2018-03-08T06:56:09.666Z,95.56
2018-03-08T06:57:10.294Z,95.41
2018-03-08T06:58:10.869Z,95.32
2018-03-08T06:59:11.447Z,95.61
2018-03-08T07:00:12.022Z,95.56
2018-03-08T07:01:12.597Z,95.51
2018-03-08T07:02:13.172Z,95.41
2018-03-08T07:03:13.747Z,95.65
2018-03-08T07:04:14.324Z,95.61
2018-03-08T07:05:14.950Z,95.46
2018-03-08T07:06:15.577Z,95.56
2018-03-08T07:07:16.154Z,95.61
2018-03-08T07:08:16.731Z,95.89
2018-03-08T07:09:17.307Z,95.89
2018-03-08T07:10:17.887Z,95.89
2018-03-08T07:11:18.459Z,95.70
2018-03-08T07:12:19.034Z,95.61
2018-03-08T07:13:19.611Z,95.70
2018-03-08T07:14:20.186Z,95.61
2018-03-08T07:15:20.812Z,95.70
2018-03-08T07:16:21.387Z,95.70
2018-03-08T07:17:21.962Z,95.70
2018-03-08T07:18:22.541Z,95.70
2018-03-08T07:19:23.167Z,96.03
2018-03-08T07:20:23.744Z,95.70
2018-03-08T07:21:24.322Z,95.61
2018-03-08T07:22:24.925Z,95.32
2018-03-08T07:23:25.524Z,95.98
2018-03-08T07:24:26.101Z,95.79
2018-03-08T07:25:26.748Z,96.18
2018-03-08T07:26:27.309Z,96.08
2018-03-08T07:27:27.881Z,96.18
2018-03-08T07:28:28.506Z,96.27
2018-03-08T07:29:29.032Z,96.47
2018-03-08T07:30:29.657Z,96.27
2018-03-08T07:31:30.233Z,96.47
2018-03-08T07:32:30.808Z,96.84
2018-03-08T07:33:31.385Z,96.37
2018-03-08T07:34:32.010Z,96.37
2018-03-08T07:35:32.584Z,96.66
2018-03-08T07:36:33.161Z,96.47
2018-03-08T07:37:33.737Z,96.47
2018-03-08T07:38:34.314Z,96.37
2018-03-08T07:39:34.889Z,96.47
2018-03-08T07:40:35.466Z,96.47
2018-03-08T07:41:36.042Z,96.66
2018-03-08T07:42:36.665Z,96.08
2018-03-08T07:43:37.245Z,96.37
2018-03-08T07:44:37.869Z,96.18
2018-03-08T07:45:38.443Z,96.56
2018-03-08T07:46:39.017Z,96.37
2018-03-08T07:47:39.593Z,96.37
2018-03-08T07:48:40.169Z,96.66
2018-03-08T07:49:40.743Z,96.47
2018-03-08T07:50:41.317Z,96.37
2018-03-08T07:51:42.044Z,95.79
2018-03-08T07:52:42.620Z,96.08
2018-03-08T07:53:43.197Z,96.18
2018-03-08T07:54:43.771Z,96.37
2018-03-08T07:55:44.348Z,96.18
2018-03-08T07:56:44.922Z,95.98
2018-03-08T07:57:45.497Z,95.61
2018-03-08T07:58:46.071Z,95.79
2018-03-08T07:59:46.646Z,96.08
2018-03-08T08:00:47.220Z,96.18
2018-03-08T08:01:47.794Z,95.98
2018-03-08T08:02:48.421Z,96.37
2018-03-08T08:03:48.997Z,96.66
2018-03-08T08:04:49.622Z,96.08
2018-03-08T08:05:50.201Z,96.66
2018-03-08T08:06:50.774Z,96.18
2018-03-08T08:07:51.401Z,96.56
2018-03-08T08:08:51.976Z,96.56
2018-03-08T08:09:52.553Z,96.37
2018-03-08T08:10:53.130Z,96.66
2018-03-08T08:11:53.706Z,96.47
2018-03-08T08:12:54.282Z,96.37
2018-03-08T08:13:54.856Z,96.66
2018-03-08T08:14:55.431Z,96.37
2018-03-08T08:15:56.068Z,96.37
2018-03-08T08:16:56.633Z,96.47
2018-03-08T08:17:57.214Z,96.66
2018-03-08T08:18:57.783Z,96.66
2018-03-08T08:19:58.359Z,96.75
2018-03-08T08:20:58.968Z,96.56
2018-03-08T08:21:59.507Z,96.37
2018-03-08T08:23:00.232Z,96.84
2018-03-08T08:24:00.805Z,96.75
2018-03-08T08:25:01.380Z,96.66
2018-03-08T08:26:02.006Z,96.37
2018-03-08T08:27:02.581Z,96.94
2018-03-08T08:28:03.157Z,96.37
2018-03-08T08:29:03.733Z,96.47
2018-03-08T08:30:04.309Z,96.66
2018-03-08T08:31:04.934Z,96.75
2018-03-08T08:32:05.563Z,97.04
2018-03-08T08:33:06.138Z,96.56
2018-03-08T08:34:06.714Z,97.23
2018-03-08T08:35:07.288Z,96.94
2018-03-08T08:36:07.863Z,97.80
2018-03-08T08:37:08.439Z,97.42
2018-03-08T08:38:09.015Z,97.61
2018-03-08T08:39:09.593Z,97.52
2018-03-08T08:40:10.169Z,97.42
2018-03-08T08:41:10.747Z,97.42
2018-03-08T08:42:11.372Z,97.61
2018-03-08T08:43:11.949Z,97.61
2018-03-08T08:44:12.574Z,97.13
2018-03-08T08:45:13.149Z,97.52
2018-03-08T08:46:13.726Z,97.52
2018-03-08T08:47:14.301Z,97.52
2018-03-08T08:48:14.875Z,97.23
2018-03-08T08:49:15.453Z,97.66
2018-03-08T08:50:16.183Z,99.33
2018-03-08T08:51:16.813Z,99.19
2018-03-08T08:52:17.394Z,98.14
2018-03-08T08:53:17.975Z,97.95
2018-03-08T08:54:18.558Z,97.08
2018-03-08T08:55:19.136Z,98.04
2018-03-08T08:56:19.717Z,98.14
2018-03-08T08:57:20.296Z,97.47
2018-03-08T08:58:20.877Z,97.56
2018-03-08T08:59:21.457Z,97.56
2018-03-08T09:00:22.035Z,97.75
2018-03-08T09:01:22.614Z,97.47
2018-03-08T09:02:23.242Z,97.37
2018-03-08T09:03:23.820Z,98.04
2018-03-08T09:04:24.400Z,97.95
2018-03-08T09:05:25.135Z,97.47
2018-03-08T09:06:25.715Z,97.66
2018-03-08T09:07:26.295Z,97.37
2018-03-08T09:08:26.875Z,97.47
2018-03-08T09:09:27.455Z,97.66
2018-03-08T09:10:28.186Z,96.80
2018-03-08T09:11:28.764Z,96.42
2018-03-08T09:12:29.345Z,96.61
2018-03-08T09:13:29.926Z,96.61
2018-03-08T09:14:30.506Z,96.56
2018-03-08T09:15:31.088Z,96.66
2018-03-08T09:16:31.669Z,96.18
2018-03-08T09:17:32.249Z,95.89
2018-03-08T09:18:32.830Z,95.89
2018-03-08T09:19:33.411Z,96.08
2018-03-08T09:20:33.998Z,95.79
2018-03-08T09:21:34.616Z,95.51
2018-03-08T09:22:35.200Z,95.79
2018-03-08T09:23:35.830Z,95.70
2018-03-08T09:24:36.464Z,95.89
2018-03-08T09:25:37.086Z,95.79
2018-03-08T09:26:37.672Z,95.70
2018-03-08T09:27:38.304Z,95.61
2018-03-08T09:28:38.831Z,95.79
2018-03-08T09:29:39.462Z,95.51
2018-03-08T09:30:40.044Z,95.70
2018-03-08T09:31:40.622Z,95.51
2018-03-08T09:32:41.202Z,95.70
2018-03-08T09:33:41.784Z,95.61
2018-03-08T09:34:42.365Z,95.98
2018-03-08T09:35:42.944Z,95.89
2018-03-08T09:36:43.525Z,95.79
2018-03-08T09:37:44.154Z,96.08
2018-03-08T09:38:44.734Z,96.37
2018-03-08T09:39:45.316Z,95.79
2018-03-08T09:40:45.893Z,96.37
2018-03-08T09:41:46.473Z,95.98
2018-03-08T09:42:47.055Z,96.66
2018-03-08T09:43:47.691Z,95.70
2018-03-08T09:44:48.311Z,96.18
2018-03-08T09:45:48.948Z,95.89
2018-03-08T09:46:49.527Z,95.89
2018-03-08T09:47:50.105Z,95.89
2018-03-08T09:48:50.685Z,95.98
2018-03-08T09:49:51.263Z,95.70
2018-03-08T09:50:51.847Z,95.79
2018-03-08T09:51:52.429Z,95.98
2018-03-08T09:52:53.006Z,95.89
2018-03-08T09:53:53.586Z,95.70
2018-03-08T09:54:54.171Z,96.37
2018-03-08T09:55:54.749Z,96.75
2018-03-08T09:56:55.330Z,96.27
2018-03-08T09:57:55.911Z,96.27
2018-03-08T09:58:56.544Z,96.56
2018-03-08T09:59:57.071Z,96.27
2018-03-08T10:00:57.801Z,96.75
2018-03-08T10:01:58.435Z,96.56
2018-03-08T10:02:59.055Z,96.47
2018-03-08T10:03:59.634Z,96.47
2018-03-08T10:05:00.262Z,97.04
2018-03-08T10:06:00.845Z,96.66
2018-03-08T10:07:01.424Z,96.75
2018-03-08T10:08:02.008Z,97.13
2018-03-08T10:09:02.588Z,97.61
2018-03-08T10:10:03.167Z,97.33
2018-03-08T10:11:03.748Z,97.52
2018-03-08T10:12:04.333Z,97.04
2018-03-08T10:13:04.909Z,96.75
2018-03-08T10:14:05.488Z,96.66
2018-03-08T10:15:06.070Z,97.52
2018-03-08T10:16:06.650Z,97.61
2018-03-08T10:17:07.231Z,96.66
2018-03-08T10:18:07.813Z,97.04
2018-03-08T10:19:08.394Z,96.84
2018-03-08T10:20:08.974Z,96.75
2018-03-08T10:21:09.556Z,96.94
2018-03-08T10:22:10.187Z,96.94
2018-03-08T10:23:10.817Z,97.13
2018-03-08T10:24:11.398Z,97.33
2018-03-08T10:25:12.028Z,96.66
2018-03-08T10:26:12.665Z,97.80
2018-03-08T10:27:13.186Z,98.57
2018-03-08T10:28:13.770Z,97.75
2018-03-08T10:29:14.351Z,97.71
2018-03-08T10:30:14.931Z,96.70
2018-03-08T10:31:15.512Z,97.23
2018-03-08T10:32:16.096Z,96.84
2018-03-08T10:33:16.771Z,96.70
2018-03-08T10:34:17.296Z,96.99
2018-03-08T10:35:17.877Z,96.70
2018-03-08T10:36:18.459Z,96.61
2018-03-08T10:37:19.040Z,96.70
2018-03-08T10:38:19.621Z,96.03
2018-03-08T10:40:21.826Z,95.65
2018-03-08T10:41:22.407Z,96.61
2018-03-08T10:42:22.988Z,95.65
2018-03-08T10:43:23.570Z,95.94
2018-03-08T10:44:24.201Z,96.03
2018-03-08T10:45:24.832Z,96.70
2018-03-08T10:46:25.415Z,95.56
2018-03-08T10:47:25.996Z,95.46
2018-03-08T10:48:26.580Z,95.60
2018-03-08T10:49:27.162Z,95.79
2018-03-08T10:50:27.756Z,94.26
2018-03-08T10:51:28.328Z,93.59
2018-03-08T10:52:28.910Z,93.49
2018-03-08T10:53:29.492Z,92.92
2018-03-08T10:54:30.076Z,93.02
2018-03-08T10:55:30.656Z,92.73
2018-03-08T10:56:31.389Z,93.69
2018-03-08T10:57:31.971Z,94.74
2018-03-08T10:58:33.250Z,94.35
2018-03-08T10:59:33.137Z,94.74
2018-03-08T11:00:33.725Z,95.22
2018-03-08T11:01:34.341Z,96.08
2018-03-08T11:02:34.923Z,95.03
2018-03-08T11:03:35.505Z,95.22
2018-03-08T11:04:36.134Z,95.22
2018-03-08T11:05:36.716Z,94.64
2018-03-08T11:06:37.295Z,94.26
2018-03-08T11:07:38.027Z,94.84
2018-03-08T11:08:38.609Z,94.93
2018-03-08T11:09:39.191Z,94.17
2018-03-08T11:10:39.771Z,94.64
2018-03-08T11:11:40.354Z,93.88
2018-03-08T11:12:40.933Z,94.07
2018-03-08T11:13:41.514Z,94.74
2018-03-08T11:14:42.145Z,95.22
2018-03-08T11:15:42.728Z,94.84
2018-03-08T11:16:43.309Z,94.74
2018-03-08T11:17:43.890Z,94.64
2018-03-08T11:18:44.472Z,94.74
2018-03-08T11:19:45.051Z,94.74
2018-03-08T11:20:45.633Z,94.45
2018-03-08T11:21:46.217Z,94.64
2018-03-08T11:22:46.798Z,94.64
2018-03-08T11:23:47.381Z,94.74
2018-03-08T11:24:48.010Z,94.64
2018-03-08T11:25:48.593Z,95.12
2018-03-08T11:26:49.223Z,95.70
2018-03-08T11:27:49.803Z,94.64
2018-03-08T11:28:50.388Z,94.74
2018-03-08T11:29:51.015Z,94.35
2018-03-08T11:30:51.596Z,93.98
2018-03-08T11:31:52.180Z,94.26
2018-03-08T11:32:52.762Z,94.55
2018-03-08T11:33:53.344Z,94.55
2018-03-08T11:34:53.928Z,95.03
2018-03-08T11:35:54.561Z,94.69
2018-03-08T11:36:55.141Z,94.89
2018-03-08T11:37:55.729Z,94.59
2018-03-08T11:38:56.308Z,93.35
2018-03-08T11:39:56.890Z,91.91
2018-03-08T11:40:57.472Z,92.20
2018-03-08T11:41:58.102Z,93.54
2018-03-08T11:42:58.875Z,92.97
2018-03-08T11:43:59.458Z,93.16
2018-03-08T11:45:00.042Z,92.97
2018-03-08T11:46:00.623Z,92.39
2018-03-08T11:47:02.211Z,92.01
2018-03-08T11:48:01.787Z,92.01
2018-03-08T11:49:02.374Z,92.01
2018-03-08T11:50:02.953Z,91.43
2018-03-08T11:51:03.533Z,91.82
2018-03-08T11:52:04.116Z,91.91
2018-03-08T11:53:04.748Z,91.91
2018-03-08T11:54:05.329Z,91.82
2018-03-08T11:55:05.911Z,91.82
2018-03-08T11:56:06.494Z,92.01
2018-03-08T11:57:07.077Z,91.91
2018-03-08T11:58:07.661Z,92.10
2018-03-08T11:59:08.338Z,92.01
2018-03-08T12:00:09.068Z,92.06
2018-03-08T12:01:09.653Z,93.69
2018-03-08T12:02:10.234Z,93.59
2018-03-08T12:03:10.817Z,94.02
2018-03-08T12:04:11.398Z,94.55
2018-03-08T12:05:11.979Z,93.59
2018-03-08T12:06:12.561Z,93.78
2018-03-08T12:07:13.142Z,93.98
2018-03-08T12:08:13.726Z,94.35
2018-03-08T12:09:14.307Z,94.07
2018-03-08T12:10:14.890Z,93.21
2018-03-08T12:11:15.471Z,94.07
2018-03-08T12:12:16.055Z,93.49
2018-03-08T12:13:16.642Z,92.77
2018-03-08T12:14:17.264Z,92.44
2018-03-08T12:15:17.898Z,92.82
2018-03-08T12:16:18.482Z,92.06
2018-03-08T12:17:19.112Z,92.73
2018-03-08T12:18:19.695Z,92.63
2018-03-08T12:19:20.326Z,92.54
2018-03-08T12:20:20.913Z,92.92
2018-03-08T12:21:21.490Z,93.59
2018-03-08T12:22:22.071Z,93.59
2018-03-08T12:23:22.655Z,93.69
2018-03-08T12:24:23.237Z,93.59
2018-03-08T12:25:23.818Z,93.78
2018-03-08T12:26:24.402Z,92.82
2018-03-08T12:27:24.982Z,93.59
2018-03-08T12:28:25.564Z,93.88
2018-03-08T12:29:26.143Z,93.30
2018-03-08T12:30:26.774Z,93.59
2018-03-08T12:31:27.409Z,94.26
2018-03-08T12:32:27.987Z,94.35
2018-03-08T12:33:28.717Z,94.55
2018-03-08T12:34:29.299Z,94.45
2018-03-08T12:35:29.929Z,94.55
2018-03-08T12:36:30.462Z,95.51
2018-03-08T12:37:31.043Z,95.70
2018-03-08T12:38:31.626Z,96.66
2018-03-08T12:39:32.269Z,97.71
2018-03-08T12:40:32.790Z,96.84
2018-03-08T12:41:33.413Z,96.18
2018-03-08T12:42:33.997Z,95.70
2018-03-08T12:43:34.579Z,95.89
2018-03-08T12:44:35.162Z,95.98
2018-03-08T12:45:35.743Z,97.61
2018-03-08T12:46:36.323Z,97.71
2018-03-08T12:47:36.905Z,97.71
2018-03-08T12:48:37.581Z,96.56
2018-03-08T12:49:38.120Z,96.08
2018-03-08T12:50:38.754Z,96.66
2018-03-08T12:51:39.335Z,98.76
2018-03-08T12:52:40.067Z,98.00
2018-03-08T12:53:40.650Z,97.61
2018-03-08T12:54:41.231Z,98.47
2018-03-08T12:55:41.813Z,99.43
2018-03-08T12:56:42.396Z,99.05
2018-03-08T12:57:42.976Z,98.86
2018-03-08T12:58:43.558Z,98.47
2018-03-08T12:59:44.190Z,98.67
2018-03-08T13:00:44.774Z,98.10
2018-03-08T13:01:45.353Z,97.90
2018-03-08T13:02:45.936Z,97.80